Thursday, July 31, 2014, 11:31 AM EDT

KPOU, Poughkeepsie Dutchess Cty

Location: Wappingers Falls, NY, United States Lat: 41.633
Local Time: 11:31 AM EDT (15:31 GMT) Lon: -73.883
Time Zone: US/Eastern Elev: 167 ft

Show me the last for .
Show Decoded

2014-07-31 10:53 METAR KPOU 311453Z 21005KT 10SM FEW055 22/16 A3008 RMK AO2 SLP181 60000
                 T02220156 58002 =
2014-07-31 09:53 METAR KPOU 311353Z 17005KT 10SM BKN055 BKN110 19/16 A3008 RMK AO2 RAB1254E06
                 SLP183 P0000 T01940161 =
2014-07-31 08:53 METAR KPOU 311253Z 13003KT 10SM BKN060 OVC080 18/15 A3008 RMK AO2 RAB08E29
                 SLP183 P0000 T01780150 =
2014-07-31 07:53 METAR KPOU 311153Z 00000KT 10SM BKN060 OVC090 17/14 A3009 RMK AO2 RAB16E46
                 SLP184 P0001 60001 70001 T01670144 10167 20133 51012 =
2014-07-31 06:53 METAR KPOU 311053Z 00000KT 10SM SCT070 BKN090 16/14 A3007 RMK AO2 SLP180
                 T01560139 =
2014-07-31 05:53 METAR KPOU 310953Z AUTO 00000KT 10SM CLR 14/13 A3007 RMK AO2 SLP177 T01390128 =
2014-07-31 04:53 METAR KPOU 310853Z AUTO 00000KT 10SM BKN070 BKN080 14/13 A3005 RMK AO2 SLP172
                 T01440128 53005 =
2014-07-31 03:53 METAR KPOU 310753Z AUTO 00000KT 10SM CLR 14/13 A3004 =
2014-07-31 02:53 METAR KPOU 310653Z AUTO 00000KT 10SM CLR 15/13 A3004 RMK AO2 SLP168 T01500133 =
2014-07-31 01:53 METAR KPOU 310553Z AUTO 00000KT 10SM CLR 15/13 A3004 RMK AO2 SLP167 T01500133
                 10222 20150 53004 =
2014-07-31 00:53 METAR KPOU 310453Z AUTO 00000KT 10SM CLR 16/14 A3003 RMK AO2 SLP165 T01560139
                 402560150 =
2014-07-30 23:53 METAR KPOU 310353Z AUTO 00000KT 10SM CLR 16/14 A3003 RMK AO2 SLP165 T01610139 =
2014-07-30 22:53 METAR KPOU 310253Z AUTO 00000KT 10SM CLR 17/14 A3003 =
2014-07-30 21:53 METAR KPOU 310153Z 00000KT 10SM CLR 18/14 A3003 RMK AO2 SLP163 T01780144 =
2014-07-30 20:53 METAR KPOU 310053Z 00000KT 10SM CLR 19/15 A3001 RMK AO2 SLP158 T01890150 =
2014-07-30 19:53 METAR KPOU 302353Z 00000KT 10SM CLR 22/14 A3000 =
2014-07-30 18:53 METAR KPOU 302253Z VRB03KT 10SM CLR 24/12 A2999 RMK AO2 SLP151 T02440122 =
2014-07-30 17:53 METAR KPOU 302153Z 21007KT 10SM CLR 25/11 A2998 RMK AO2 SLP148 T02500106 =
2014-07-30 16:53 METAR KPOU 302053Z COR 21007KT 10SM SCT062 26/10 A2999 RMK AO2 SLP150 T02560100
                 55004 =
2014-07-30 15:53 METAR KPOU 301953Z COR 25006KT 10SM SCT055 25/11 A2998 =
2014-07-30 14:53 METAR KPOU 301853Z 28005KT 10SM FEW080 25/11 A2999 RMK AO2 SLP151 T02500111 =
2014-07-30 13:53 METAR KPOU 301753Z 26007KT 10SM BKN080 24/10 A3000 RMK AO2 SLP154 T02440100
                 10250 20172 56011 =
2014-07-30 12:53 METAR KPOU 301653Z 22004KT 10SM FEW075 23/11 A3000 RMK AO2 SLP156 T02330111 =
2014-07-30 11:53 METAR KPOU 301553Z VRB03KT 10SM SCT040 23/12 A3002 =

Support USWX by starting your Amazon purchase here.